Time;durP1;ratioP1;P1;durP2;ratioP2;P2;SDS_P1;SDS_P2;PMS_P1;PMS_P2;Temp;Humidity;BMP_temperature;BMP_pressure;BME280_temperature;BME280_humidity;BME280_pressure;Samples;Min_cycle;Max_cycle;Signal;HPM_P1;HPM_P2
2022/07/02 00:00:46;;;;;;;;;;;;;;;14.09;100.00;102119.75;4975851;28;19918;-59
2022/07/02 00:03:14;;;;;;;;;;;;;;;14.11;100.00;102122.38;5006934;28;20358;-59
2022/07/02 00:05:46;;;;;;;;;;;;;;;14.13;100.00;102116.06;4975360;28;19910;-59
2022/07/02 00:08:12;;;;;;;;;;;;;;;14.15;100.00;102116.00;4975578;28;19914;-58
2022/07/02 00:10:37;;;;;;;;;;;;;;;14.16;100.00;102118.59;4975506;28;19921;-59
2022/07/02 00:13:02;;;;;;;;;;;;;;;14.16;100.00;102121.25;4975681;28;19918;-59
2022/07/02 00:15:27;;;;;;;;;;;;;;;14.18;100.00;102114.06;4975557;28;19944;-58
2022/07/02 00:17:53;;;;;;;;;;;;;;;14.16;100.00;102109.75;5006425;28;20421;-58
2022/07/02 00:20:18;;;;;;;;;;;;;;;14.11;100.00;102112.56;4975424;28;19933;-59
2022/07/02 00:22:44;;;;;;;;;;;;;;;14.07;100.00;102106.50;4975317;28;19914;-59
2022/07/02 00:25:09;;;;;;;;;;;;;;;14.03;100.00;102117.34;4975390;28;19914;-59
2022/07/02 00:27:36;;;;;;;;;;;;;;;13.98;100.00;102112.19;4975207;28;19914;-60
2022/07/02 00:30:03;;;;;;;;;;;;;;;13.92;100.00;102110.59;4975414;28;19932;-60
2022/07/02 00:32:30;;;;;;;;;;;;;;;13.87;100.00;102120.56;5006307;28;19937;-60
2022/07/02 00:34:57;;;;;;;;;;;;;;;13.85;100.00;102113.56;4975035;28;19910;-60
2022/07/02 00:37:23;;;;;;;;;;;;;;;13.80;100.00;102119.09;4989706;28;20349;-60
2022/07/02 00:39:48;;;;;;;;;;;;;;;13.76;100.00;102106.81;4975002;28;20393;-60
2022/07/02 00:42:14;;;;;;;;;;;;;;;13.74;100.00;102114.84;4975080;28;19964;-60
2022/07/02 00:44:39;;;;;;;;;;;;;;;13.72;100.00;102108.72;4974865;28;20366;-58
2022/07/02 00:47:06;;;;;;;;;;;;;;;13.75;100.00;102113.06;4974521;28;19910;-60
2022/07/02 00:49:35;;;;;;;;;;;;;;;13.74;100.00;102116.66;5005943;28;19932;-60
2022/07/02 00:52:01;;;;;;;;;;;;;;;13.72;100.00;102116.72;4974646;28;20361;-61
2022/07/02 00:54:27;;;;;;;;;;;;;;;13.71;100.00;102122.97;4974987;28;19917;-59
2022/07/02 00:56:53;;;;;;;;;;;;;;;13.69;100.00;102113.28;4989312;28;19956;-60
2022/07/02 00:59:20;;;;;;;;;;;;;;;13.67;100.00;102112.47;4974724;28;20286;-59
2022/07/02 01:01:45;;;;;;;;;;;;;;;13.66;100.00;102113.41;4974465;28;19910;-60
2022/07/02 01:04:11;;;;;;;;;;;;;;;13.65;100.00;102117.88;4974367;28;19929;-59
2022/07/02 01:06:38;;;;;;;;;;;;;;;13.62;100.00;102109.13;5005813;28;19921;-60
2022/07/02 01:11:50;;;;;;;;;;;;;;;13.57;100.00;102110.16;4974262;28;19925;-61
2022/07/02 01:14:17;;;;;;;;;;;;;;;13.57;100.00;102112.81;4974427;28;19910;-61
2022/07/02 01:16:42;;;;;;;;;;;;;;;13.59;100.00;102110.09;4973994;28;19909;-60
2022/07/02 01:19:08;;;;;;;;;;;;;;;13.62;100.00;102114.44;4974401;28;20381;-60
2022/07/02 01:21:33;;;;;;;;;;;;;;;13.62;100.00;102111.78;5005821;28;20224;-60
2022/07/02 01:23:59;;;;;;;;;;;;;;;13.62;100.00;102107.34;4974141;28;20004;-59
2022/07/02 01:26:24;;;;;;;;;;;;;;;13.62;100.00;102101.13;4974101;28;19915;-60
2022/07/02 01:28:49;;;;;;;;;;;;;;;13.59;100.00;102105.66;4988781;28;19914;-60
2022/07/02 01:31:14;;;;;;;;;;;;;;;13.56;100.00;102105.75;4974111;28;19969;-60
2022/07/02 01:33:40;;;;;;;;;;;;;;;13.51;100.00;102106.88;4973912;28;19918;-60
2022/07/02 01:36:05;;;;;;;;;;;;;;;13.47;100.00;102103.44;5005612;28;19921;-59
2022/07/02 01:38:30;;;;;;;;;;;;;;;13.43;100.00;102102.69;4973671;28;19921;-59
2022/07/02 01:41:38;;;;;;;;;;;;;;;13.39;100.00;102103.72;4988865;28;19910;-59
2022/07/02 01:43:40;;;;;;;;;;;;;;;13.37;100.00;102099.38;4999806;28;19956;-60
2022/07/02 01:46:06;;;;;;;;;;;;;;;13.35;100.00;102110.06;4974130;28;19958;-60
2022/07/02 01:48:31;;;;;;;;;;;;;;;13.32;100.00;102103.97;4973638;28;19921;-60
2022/07/02 01:50:57;;;;;;;;;;;;;;;13.30;100.00;102113.78;4973730;28;19921;-60
2022/07/02 01:53:22;;;;;;;;;;;;;;;13.26;100.00;102105.06;4973771;28;19941;-60
2022/07/02 01:55:47;;;;;;;;;;;;;;;13.22;100.00;102106.09;4973733;28;19921;-58
2022/07/02 01:58:12;;;;;;;;;;;;;;;13.20;100.00;102103.50;4987924;28;20333;-59
2022/07/02 02:00:38;;;;;;;;;;;;;;;13.18;100.00;102115.97;4973564;28;20072;-59
2022/07/02 02:03:03;;;;;;;;;;;;;;;13.15;100.00;102101.94;4973691;28;20000;-59
2022/07/02 02:05:28;;;;;;;;;;;;;;;13.15;100.00;102115.22;5005027;28;19918;-59
2022/07/02 02:07:53;;;;;;;;;;;;;;;13.14;100.00;102102.84;5004655;28;19914;-60
2022/07/02 02:10:20;;;;;;;;;;;;;;;13.12;100.00;102110.88;4973602;28;20017;-60
2022/07/02 02:12:45;;;;;;;;;;;;;;;13.13;100.00;102111.75;4973399;28;20010;-60
2022/07/02 02:15:10;;;;;;;;;;;;;;;13.11;100.00;102110.00;4988446;28;19922;-60
2022/07/02 02:17:36;;;;;;;;;;;;;;;13.10;100.00;102104.75;5004799;28;19910;-60
2022/07/02 02:20:01;;;;;;;;;;;;;;;13.10;100.00;102099.44;4988266;28;19964;-60
2022/07/02 02:22:26;;;;;;;;;;;;;;;13.07;100.00;102105.72;4973510;28;19914;-60
2022/07/02 02:24:51;;;;;;;;;;;;;;;13.05;100.00;102104.88;4988275;28;19914;-60
2022/07/02 02:27:17;;;;;;;;;;;;;;;13.03;100.00;102095.22;4973361;28;19956;-60
2022/07/02 02:29:42;;;;;;;;;;;;;;;13.00;100.00;102093.53;4973142;28;20301;-59
2022/07/02 02:32:07;;;;;;;;;;;;;;;13.00;100.00;102098.88;4973993;28;20299;-59
2022/07/02 02:34:32;;;;;;;;;;;;;;;12.98;100.00;102100.72;4973420;28;20370;-60
2022/07/02 02:36:58;;;;;;;;;;;;;;;12.95;100.00;102099.03;4973298;28;20038;-60
2022/07/02 02:39:23;;;;;;;;;;;;;;;12.93;100.00;102103.53;4973148;28;19957;-60
2022/07/02 02:41:48;;;;;;;;;;;;;;;12.91;100.00;102104.50;4973303;28;19910;-60
2022/07/02 02:44:13;;;;;;;;;;;;;;;12.89;100.00;102101.91;4973210;28;19914;-60
2022/07/02 02:46:39;;;;;;;;;;;;;;;12.86;100.00;102117.09;4973504;28;19936;-59
2022/07/02 02:49:04;;;;;;;;;;;;;;;12.83;100.00;102112.75;4972861;28;19914;-60
2022/07/02 02:51:29;;;;;;;;;;;;;;;12.82;100.00;102094.19;4973271;28;19914;-60
2022/07/02 02:53:54;;;;;;;;;;;;;;;12.81;100.00;102105.75;4973078;28;20017;-60
2022/07/02 02:56:19;;;;;;;;;;;;;;;12.78;100.00;102096.94;4973246;28;20001;-60
2022/07/02 02:58:45;;;;;;;;;;;;;;;12.80;100.00;102107.56;4972619;28;19956;-60
2022/07/02 03:01:10;;;;;;;;;;;;;;;12.76;100.00;102098.81;4988350;28;19921;-60
2022/07/02 03:03:35;;;;;;;;;;;;;;;12.76;100.00;102098.81;4972928;28;19930;-60
2022/07/02 03:06:00;;;;;;;;;;;;;;;12.73;100.00;102101.56;4973047;28;19918;-60
2022/07/02 03:08:26;;;;;;;;;;;;;;;12.73;100.00;102101.56;5004137;28;19933;-60
2022/07/02 03:10:51;;;;;;;;;;;;;;;12.74;100.00;102107.75;4975002;28;20438;-60
2022/07/02 03:13:16;;;;;;;;;;;;;;;12.71;100.00;102106.06;4976537;28;19925;-59
2022/07/02 03:15:42;;;;;;;;;;;;;;;12.71;100.00;102107.84;4976689;28;20005;-61
2022/07/02 03:18:07;;;;;;;;;;;;;;;12.70;100.00;102114.94;4976414;28;19914;-61
2022/07/02 03:20:32;;;;;;;;;;;;;;;12.69;100.00;102107.03;4976420;28;20135;-60
2022/07/02 03:22:58;;;;;;;;;;;;;;;12.70;100.00;102109.63;4976539;28;20014;-60
2022/07/02 03:25:23;;;;;;;;;;;;;;;12.69;100.00;102110.56;4976503;28;19964;-60
2022/07/02 03:27:49;;;;;;;;;;;;;;;12.67;100.00;102120.34;4976048;28;19910;-60
2022/07/02 03:30:14;;;;;;;;;;;;;;;12.69;100.00;102121.19;4976172;28;19913;-59
2022/07/02 03:32:39;;;;;;;;;;;;;;;12.69;100.00;102113.22;4991358;28;20401;-59
2022/07/02 03:35:05;;;;;;;;;;;;;;;12.68;100.00;102126.56;4976193;28;20294;-60
2022/07/02 03:37:30;;;;;;;;;;;;;;;12.67;100.00;102123.00;4976257;28;19914;-59
2022/07/02 03:39:56;;;;;;;;;;;;;;;12.67;100.00;102135.44;4975805;28;19910;-60
2022/07/02 03:42:21;;;;;;;;;;;;;;;12.68;100.00;102129.22;4991106;28;19917;-60
2022/07/02 03:44:46;;;;;;;;;;;;;;;12.66;100.00;102126.63;5007349;28;19914;-59
2022/07/02 03:47:11;;;;;;;;;;;;;;;12.68;100.00;102132.72;4976335;28;19910;-59
2022/07/02 03:49:37;;;;;;;;;;;;;;;12.70;100.00;102130.91;5006986;28;19921;-58
2022/07/02 03:52:03;;;;;;;;;;;;;;;12.72;100.00;102130.84;4975876;28;19988;-59
2022/07/02 03:54:28;;;;;;;;;;;;;;;12.74;100.00;102129.00;4975937;28;20005;-59
2022/07/02 03:56:53;;;;;;;;;;;;;;;12.74;100.00;102129.00;4976283;28;19949;-59
2022/07/02 03:59:18;;;;;;;;;;;;;;;12.76;100.00;102124.50;4975454;28;19918;-60
2022/07/02 04:01:44;;;;;;;;;;;;;;;12.80;100.00;102136.78;4975925;28;19920;-59
2022/07/02 04:04:09;;;;;;;;;;;;;;;12.83;100.00;102130.50;4975853;28;19955;-60
2022/07/02 04:06:34;;;;;;;;;;;;;;;12.89;100.00;102132.94;4975700;28;19914;-59
2022/07/02 04:08:59;;;;;;;;;;;;;;;12.93;100.00;102137.25;4975364;28;19920;-60
2022/07/02 04:11:25;;;;;;;;;;;;;;;12.98;100.00;102140.63;4975605;28;20004;-60
2022/07/02 04:13:50;;;;;;;;;;;;;;;13.05;100.00;102138.59;4975349;28;19996;-60
2022/07/02 04:16:15;;;;;;;;;;;;;;;13.10;100.00;102139.31;4975574;28;19945;-60
2022/07/02 04:18:41;;;;;;;;;;;;;;;13.14;100.00;102138.28;4975511;28;19992;-60
2022/07/02 04:21:06;;;;;;;;;;;;;;;13.16;100.00;102143.53;5006302;28;20328;-60
2022/07/02 04:23:31;;;;;;;;;;;;;;;13.20;100.00;102142.53;4989944;28;20344;-60
2022/07/02 04:25:56;;;;;;;;;;;;;;;13.21;100.00;102136.25;4975325;28;20402;-60
2022/07/02 04:28:23;;;;;;;;;;;;;;;13.26;100.00;102150.28;4975346;28;20393;-60
2022/07/02 04:30:48;;;;;;;;;;;;;;;13.27;100.00;102139.59;5005994;28;20385;-60
2022/07/02 04:33:14;;;;;;;;;;;;;;;13.31;100.00;102143.00;5006562;28;19999;-61
2022/07/02 04:35:39;;;;;;;;;;;;;;;13.36;100.00;102148.16;4975070;28;19914;-60
2022/07/02 04:38:05;;;;;;;;;;;;;;;13.40;100.00;102136.50;5006380;28;19920;-60
2022/07/02 04:40:30;;;;;;;;;;;;;;;13.46;100.00;102140.75;4974822;28;19921;-60
2022/07/02 04:42:55;;;;;;;;;;;;;;;13.50;100.00;102145.03;4974855;28;19965;-59
2022/07/02 04:45:20;;;;;;;;;;;;;;;13.52;100.00;102146.72;4975007;28;19910;-60
2022/07/02 04:47:46;;;;;;;;;;;;;;;13.55;100.00;102143.09;5006269;28;19968;-59
2022/07/02 04:50:11;;;;;;;;;;;;;;;13.58;100.00;102140.28;5006218;28;19949;-59
2022/07/02 04:52:36;;;;;;;;;;;;;;;13.63;100.00;102137.47;4974734;28;20367;-58
2022/07/02 04:55:02;;;;;;;;;;;;;;;13.67;100.00;102133.78;4974749;28;20392;-58
2022/07/02 04:57:27;;;;;;;;;;;;;;;13.71;100.00;102141.59;4974768;28;20392;-59
2022/07/02 04:59:52;;;;;;;;;;;;;;;13.76;100.00;102138.78;4974189;28;20390;-59
2022/07/02 05:02:17;;;;;;;;;;;;;;;13.84;100.00;102143.81;4974677;28;20441;-59
2022/07/02 05:04:42;;;;;;;;;;;;;;;13.84;100.00;102147.31;5005893;28;20001;-59
2022/07/02 05:07:08;;;;;;;;;;;;;;;13.89;100.00;102142.69;4974466;28;19914;-59
2022/07/02 05:09:33;;;;;;;;;;;;;;;13.94;100.00;102134.53;4974392;28;19910;-58
2022/07/02 05:11:59;;;;;;;;;;;;;;;13.97;100.00;102136.22;4974186;28;19926;-59
2022/07/02 05:14:25;;;;;;;;;;;;;;;14.02;100.00;102143.09;4974462;28;20017;-58
2022/07/02 05:16:50;;;;;;;;;;;;;;;14.06;100.00;102142.03;4974290;28;19996;-59
2022/07/02 05:19:16;;;;;;;;;;;;;;;14.12;100.00;102138.28;4974364;28;19949;-59
2022/07/02 05:21:43;;;;;;;;;;;;;;;14.17;100.00;102141.63;5005524;28;20362;-59
2022/07/02 05:24:08;;;;;;;;;;;;;;;14.21;100.00;102142.41;4974609;28;19937;-58
2022/07/02 05:26:34;;;;;;;;;;;;;;;14.25;100.00;102141.34;5005544;28;20297;-58
2022/07/02 05:28:59;;;;;;;;;;;;;;;14.31;100.00;102145.53;5005407;28;20020;-58
2022/07/02 05:31:24;;;;;;;;;;;;;;;14.37;100.00;102162.19;5005176;28;20064;-59
2022/07/02 05:33:49;;;;;;;;;;;;;;;14.44;100.00;102149.47;4973821;28;20390;-59
2022/07/02 05:36:15;;;;;;;;;;;;;;;14.54;100.00;102144.59;5005608;28;20306;-60
2022/07/02 05:38:40;;;;;;;;;;;;;;;14.59;100.00;102146.19;4988922;28;19921;-59
2022/07/02 05:41:06;;;;;;;;;;;;;;;14.66;100.00;102148.63;5004888;28;19916;-60
2022/07/02 05:43:32;;;;;;;;;;;;;;;14.68;100.00;102141.41;4973925;28;19946;-60
2022/07/02 05:45:57;;;;;;;;;;;;;;;14.73;100.00;102142.09;4973886;28;19949;-60
2022/07/02 05:48:22;;;;;;;;;;;;;;;14.76;100.00;102144.66;5005342;28;19914;-60
2022/07/02 05:50:47;;;;;;;;;;;;;;;14.83;100.00;102140.78;4973551;28;19917;-58
2022/07/02 05:53:13;;;;;;;;;;;;;;;14.86;100.00;102142.44;4988999;28;19918;-59
2022/07/02 05:55:39;;;;;;;;;;;;;;;14.90;100.00;102147.59;5005077;28;20343;-59
2022/07/02 05:58:04;;;;;;;;;;;;;;;14.93;100.00;102146.59;4973613;28;19984;-58
2022/07/02 06:00:29;;;;;;;;;;;;;;;15.04;100.00;102154.16;4973817;28;19922;-60
2022/07/02 06:02:54;;;;;;;;;;;;;;;15.08;100.00;102148.59;4973536;28;19922;-59
2022/07/02 06:08:03;;;;;;;;;;;;;;;15.23;100.00;102140.91;4973849;28;20009;-60
2022/07/02 06:10:29;;;;;;;;;;;;;;;15.29;100.00;102145.94;4973410;28;19949;-59
2022/07/02 06:12:54;;;;;;;;;;;;;;;15.33;100.00;102144.88;4973273;28;19918;-60
2022/07/02 06:15:20;;;;;;;;;;;;;;;15.37;100.00;102150.94;4973677;28;19914;-59
2022/07/02 06:17:45;;;;;;;;;;;;;;;15.45;99.60;102142.59;4988524;28;19917;-60
2022/07/02 06:20:11;;;;;;;;;;;;;;;15.50;99.12;102149.47;4973378;28;19910;-60
2022/07/02 06:22:37;;;;;;;;;;;;;;;15.55;98.86;102155.47;4973320;28;19916;-60
2022/07/02 06:25:02;;;;;;;;;;;;;;;15.61;98.63;102162.31;4988226;28;20012;-60
2022/07/02 06:27:28;;;;;;;;;;;;;;;15.68;96.63;102169.13;4973478;28;19910;-60
2022/07/02 06:29:53;;;;;;;;;;;;;;;15.78;95.82;102174.03;4973074;28;20362;-60
2022/07/02 06:32:19;;;;;;;;;;;;;;;15.85;96.44;102178.22;4973327;28;19925;-60
2022/07/02 06:34:44;;;;;;;;;;;;;;;15.93;96.11;102177.88;5004799;28;19949;-63
2022/07/02 06:37:10;;;;;;;;;;;;;;;15.96;94.79;102183.94;4973316;28;19923;-60
2022/07/02 06:39:35;;;;;;;;;;;;;;;16.02;93.80;102175.66;4973296;28;20281;-59
2022/07/02 06:42:19;;;;;;;;;;;;;;;16.09;92.25;102183.34;4972904;28;19921;-59
2022/07/02 06:44:44;;;;;;;;;;;;;;;16.16;90.19;102180.34;4973846;28;19914;-59
2022/07/02 06:47:09;;;;;;;;;;;;;;;16.25;89.11;102179.00;4977131;28;19921;-59
2022/07/02 06:49:35;;;;;;;;;;;;;;;16.31;88.10;102184.06;5008495;28;19914;-59
2022/07/02 06:52:00;;;;;;;;;;;;;;;16.35;87.41;102190.16;4991502;28;19909;-59
2022/07/02 06:54:26;;;;;;;;;;;;;;;16.37;86.33;102186.47;4976951;28;20009;-58
2022/07/02 06:56:51;;;;;;;;;;;;;;;16.46;85.44;102174.47;4976980;28;19910;-59
2022/07/02 06:59:16;;;;;;;;;;;;;;;16.50;84.92;102164.50;4977206;28;20036;-59
2022/07/02 07:01:41;;;;;;;;;;;;;;;16.51;83.80;102164.41;4991409;28;19925;-59
2022/07/02 07:04:07;;;;;;;;;;;;;;;16.52;81.91;102168.81;4976636;28;19925;-59
2022/07/02 07:06:36;;;;;;;;;;;;;;;16.61;83.97;102163.94;4976829;28;19968;-59
2022/07/02 07:09:01;;;;;;;;;;;;;;;16.67;81.40;102153.81;5007122;28;19914;-58
2022/07/02 07:11:26;;;;;;;;;;;;;;;16.71;81.15;102154.53;4976490;28;19914;-59
2022/07/02 07:13:51;;;;;;;;;;;;;;;16.81;80.00;102158.47;4976456;28;19925;-59
2022/07/02 07:16:17;;;;;;;;;;;;;;;16.87;80.17;102158.16;4976714;28;20420;-60
2022/07/02 07:19:15;;;;;;;;;;;;;;;16.93;77.93;102164.19;4991522;28;19910;-60
2022/07/02 07:21:34;;;;;;;;;;;;;;;17.02;77.45;102166.38;4975887;28;20358;-60
2022/07/02 07:24:00;;;;;;;;;;;;;;;17.10;76.26;102166.03;4976285;28;19957;-60
2022/07/02 07:26:25;;;;;;;;;;;;;;;17.23;76.20;102176.97;4976434;28;19968;-60
2022/07/02 07:28:51;;;;;;;;;;;;;;;17.25;75.70;102175.94;4976306;28;19946;-59
2022/07/02 07:31:20;;;;;;;;;;;;;;;17.40;74.30;102158.19;4976374;28;19917;-60
2022/07/02 07:33:45;;;;;;;;;;;;;;;17.47;75.82;102164.94;4991283;28;19968;-60
2022/07/02 07:36:10;;;;;;;;;;;;;;;17.51;72.94;102162.97;4976090;28;19914;-60
2022/07/02 07:38:35;;;;;;;;;;;;;;;17.56;73.49;102158.25;4991076;28;20298;-60
2022/07/02 07:41:01;;;;;;;;;;;;;;;17.68;72.64;102175.47;4990903;28;20384;-60
2022/07/02 07:43:26;;;;;;;;;;;;;;;17.77;71.98;102169.59;5007353;28;20362;-58
2022/07/02 07:45:51;;;;;;;;;;;;;;;17.82;72.93;102162.19;4990791;28;19920;-59
2022/07/02 07:48:16;;;;;;;;;;;;;;;17.87;71.93;102163.78;4976297;28;19961;-60
2022/07/02 07:50:42;;;;;;;;;;;;;;;18.00;72.17;102167.53;5007081;28;19948;-59
2022/07/02 07:53:07;;;;;;;;;;;;;;;18.09;71.16;102156.28;4975541;28;20004;-59
2022/07/02 07:55:32;;;;;;;;;;;;;;;18.08;71.29;102162.63;4975771;28;19960;-59
2022/07/02 07:57:58;;;;;;;;;;;;;;;18.10;70.45;102157.16;4974538;28;19910;-59
2022/07/02 08:00:23;;;;;;;;;;;;;;;18.18;71.60;102161.16;4975688;28;19918;-59
2022/07/02 08:02:49;;;;;;;;;;;;;;;18.34;72.82;102162.97;4974206;28;20359;-59
2022/07/02 08:05:14;;;;;;;;;;;;;;;18.41;72.28;102163.47;4975580;28;19922;-58
2022/07/02 08:07:40;;;;;;;;;;;;;;;18.38;70.37;102167.19;4975631;28;19917;-59
2022/07/02 08:10:06;;;;;;;;;;;;;;;18.39;70.49;102163.56;4975541;28;20017;-59
2022/07/02 08:12:31;;;;;;;;;;;;;;;18.42;70.87;102159.84;4975093;28;20354;-59
2022/07/02 08:14:57;;;;;;;;;;;;;;;18.46;71.68;102164.06;4975387;28;19921;-59
2022/07/02 08:17:22;;;;;;;;;;;;;;;18.53;73.16;102161.91;4975487;28;19914;-59
2022/07/02 08:19:47;;;;;;;;;;;;;;;18.62;70.06;102164.94;4975490;28;19976;-60
2022/07/02 08:22:12;;;;;;;;;;;;;;;18.70;68.92;102161.78;4975086;28;20370;-59
2022/07/02 08:24:37;;;;;;;;;;;;;;;18.74;68.77;102163.34;5006589;28;20393;-58
2022/07/02 08:27:03;;;;;;;;;;;;;;;18.67;66.22;102165.53;4975400;28;20461;-59
2022/07/02 08:29:29;;;;;;;;;;;;;;;18.82;67.98;102158.41;4975254;28;20369;-60
2022/07/02 08:31:54;;;;;;;;;;;;;;;18.98;65.88;102160.22;4974632;28;20397;-60
2022/07/02 08:34:20;;;;;;;;;;;;;;;19.09;65.08;102170.28;4974876;28;19914;-61
2022/07/02 08:36:45;;;;;;;;;;;;;;;19.22;65.83;102163.25;4975007;28;19915;-60
2022/07/02 08:39:10;;;;;;;;;;;;;;;19.38;64.50;102171.22;4974942;28;19957;-59
2022/07/02 08:41:35;;;;;;;;;;;;;;;19.82;63.29;102164.06;4975174;28;19968;-59
2022/07/02 08:44:01;;;;;;;;;;;;;;;21.23;60.82;102163.81;4974723;28;19910;-60
2022/07/02 08:46:28;;;;;;;;;;;;;;;22.75;46.66;102164.63;4989933;28;19910;-60
2022/07/02 08:48:53;;;;;;;;;;;;;;;23.90;42.10;102166.56;4974678;28;19910;-60
2022/07/02 08:51:20;;;;;;;;;;;;;;;24.46;40.26;102171.03;4974906;28;20393;-59
2022/07/02 08:53:45;;;;;;;;;;;;;;;24.58;40.10;102165.59;4974672;28;19961;-61
2022/07/02 08:56:13;;;;;;;;;;;;;;;24.85;37.99;102168.72;4974511;28;19968;-61
2022/07/02 08:58:38;;;;;;;;;;;;;;;25.04;36.31;102156.31;5005562;28;19921;-61
2022/07/02 09:01:04;;;;;;;;;;;;;;;25.32;37.15;102160.19;4974608;28;19914;-61
2022/07/02 09:03:31;;;;;;;;;;;;;;;25.23;36.87;102157.41;4974187;28;19953;-61
2022/07/02 09:05:57;;;;;;;;;;;;;;;25.94;35.35;102153.94;4989303;28;19910;-61
2022/07/02 09:08:23;;;;;;;;;;;;;;;26.21;36.00;102152.47;4974393;28;19914;-61
2022/07/02 09:10:50;;;;;;;;;;;;;;;26.39;35.18;102148.03;4974648;28;20366;-61
2022/07/02 09:13:16;;;;;;;;;;;;;;;26.44;35.30;102126.75;4974263;28;20278;-61
2022/07/02 09:15:41;;;;;;;;;;;;;;;26.41;36.10;102131.63;5005617;28;19914;-61
2022/07/02 09:18:06;;;;;;;;;;;;;;;26.60;33.85;102134.34;5005533;28;19936;-61
2022/07/02 09:20:32;;;;;;;;;;;;;;;26.06;35.16;102144.69;4974290;28;20001;-61
2022/07/02 09:22:57;;;;;;;;;;;;;;;26.35;35.72;102129.47;4974044;28;19917;-61
2022/07/02 09:25:24;;;;;;;;;;;;;;;26.40;35.07;102141.63;4974359;28;19914;-61
2022/07/02 09:27:57;;;;;;;;;;;;;;;26.04;34.99;102122.25;4974103;28;19920;-61
2022/07/02 09:30:22;;;;;;;;;;;;;;;25.69;35.57;102137.13;4974261;28;19949;-61
2022/07/02 09:32:48;;;;;;;;;;;;;;;25.93;36.68;102144.91;4988935;28;19965;-61
2022/07/02 09:35:17;;;;;;;;;;;;;;;26.08;36.14;102136.44;4973883;28;19918;-61
2022/07/02 09:37:42;;;;;;;;;;;;;;;26.66;34.92;102132.91;4974000;28;20369;-60
2022/07/02 09:40:07;;;;;;;;;;;;;;;26.35;34.30;102132.19;4972691;28;19937;-60
2022/07/02 09:42:34;;;;;;;;;;;;;;;26.89;33.71;102135.34;4988801;28;19969;-60
2022/07/02 09:45:01;;;;;;;;;;;;;;;26.69;32.55;102118.16;4973702;28;19910;-60
2022/07/02 09:47:30;;;;;;;;;;;;;;;26.06;33.94;102135.69;4973722;28;19909;-59
2022/07/02 09:49:56;;;;;;;;;;;;;;;26.18;36.26;102115.59;4973745;28;20017;-61
2022/07/02 09:52:21;;;;;;;;;;;;;;;26.79;33.37;102119.03;4973634;28;20053;-60
2022/07/02 09:54:46;;;;;;;;;;;;;;;27.36;32.76;102118.22;4988719;28;20059;-60
2022/07/02 09:57:12;;;;;;;;;;;;;;;27.73;31.31;102120.09;4973597;28;19917;-61
2022/07/02 09:59:38;;;;;;;;;;;;;;;27.68;32.14;102117.81;4973682;28;19925;-61
2022/07/02 10:02:03;;;;;;;;;;;;;;;27.74;31.71;102114.50;4973559;28;19914;-60
2022/07/02 10:04:30;;;;;;;;;;;;;;;27.53;30.89;102132.91;4988284;28;19925;-61
2022/07/02 10:06:55;;;;;;;;;;;;;;;27.07;32.00;102119.16;4973459;28;19937;-59
2022/07/02 10:09:22;;;;;;;;;;;;;;;26.96;32.95;102120.19;4973674;28;20369;-59
2022/07/02 10:11:47;;;;;;;;;;;;;;;27.35;33.74;102114.63;4973724;28;19910;-61
2022/07/02 10:14:14;;;;;;;;;;;;;;;27.74;31.83;102127.25;4973091;28;20290;-61
2022/07/02 10:16:40;;;;;;;;;;;;;;;27.96;31.76;102109.66;4973334;28;20021;-60
2022/07/02 10:19:06;;;;;;;;;;;;;;;27.25;31.78;102119.25;5004412;28;20407;-61
2022/07/02 10:21:31;;;;;;;;;;;;;;;27.40;34.31;102111.50;4973029;28;19917;-60
2022/07/02 10:23:57;;;;;;;;;;;;;;;27.55;33.52;102104.56;5004357;28;19914;-60
2022/07/02 10:26:22;;;;;;;;;;;;;;;26.96;32.02;102104.72;4973541;28;20017;-60
2022/07/02 10:28:49;;;;;;;;;;;;;;;27.07;31.98;102111.88;4973414;28;20009;-60
2022/07/02 10:31:17;;;;;;;;;;;;;;;27.34;33.69;102106.63;4973387;28;19909;-59
2022/07/02 10:33:46;;;;;;;;;;;;;;;27.58;32.60;102106.13;4973122;28;19914;-60
2022/07/02 10:36:13;;;;;;;;;;;;;;;27.10;31.80;102110.72;4973214;28;19914;-60
2022/07/02 10:38:39;;;;;;;;;;;;;;;26.91;32.46;102111.63;4973204;28;19910;-60
2022/07/02 10:41:04;;;;;;;;;;;;;;;27.22;32.00;102095.06;4973214;28;19914;-60
2022/07/02 10:43:33;;;;;;;;;;;;;;;27.22;31.37;102100.50;4988057;28;19918;-60
2022/07/02 10:46:03;;;;;;;;;;;;;;;26.66;33.24;102082.16;4973044;28;19936;-61
2022/07/02 10:48:28;;;;;;;;;;;;;;;27.23;29.77;102097.63;5004510;28;19910;-60
2022/07/02 10:50:55;;;;;;;;;;;;;;;26.90;29.66;102097.16;4972994;28;19914;-60
2022/07/02 10:53:21;;;;;;;;;;;;;;;27.03;31.49;102099.53;4987927;28;20345;-60
2022/07/02 10:55:56;;;;;;;;;;;;;;;27.57;31.02;102108.00;4973188;28;19921;-60
2022/07/02 10:58:23;;;;;;;;;;;;;;;27.91;30.54;102095.63;4973045;28;20022;-60
2022/07/02 11:00:49;;;;;;;;;;;;;;;27.31;30.00;102092.28;4973499;28;19918;-60
2022/07/02 11:03:20;;;;;;;;;;;;;;;27.99;29.66;102106.59;4972872;28;19917;-60
2022/07/02 11:05:51;;;;;;;;;;;;;;;27.92;29.19;102105.53;4973117;28;19976;-60
2022/07/02 11:08:35;;;;;;;;;;;;;;;27.49;29.10;102098.88;4988108;28;19910;-60
2022/07/02 11:11:00;;;;;;;;;;;;;;;27.44;30.38;102086.59;4972903;28;19917;-60
2022/07/02 11:13:40;;;;;;;;;;;;;;;27.49;30.02;102096.16;4972942;28;19914;-61
2022/07/02 11:16:17;;;;;;;;;;;;;;;27.28;29.50;102089.88;4972858;28;19992;-60
2022/07/02 11:18:44;;;;;;;;;;;;;;;26.25;32.68;102086.84;4972829;28;19910;-60
2022/07/02 11:21:11;;;;;;;;;;;;;;;25.52;32.49;102093.41;4987794;28;20115;-61
2022/07/02 11:23:37;;;;;;;;;;;;;;;25.63;32.61;102083.44;4972833;28;19944;-60
2022/07/02 11:26:03;;;;;;;;;;;;;;;25.47;33.55;102087.50;4972646;28;19945;-60
2022/07/02 11:28:28;;;;;;;;;;;;;;;25.19;34.30;102075.50;4972916;28;19921;-61
2022/07/02 11:30:56;;;;;;;;;;;;;;;25.09;35.78;102066.47;4973324;28;19914;-61
2022/07/02 11:33:21;;;;;;;;;;;;;;;25.39;34.59;102064.78;4976402;28;19914;-61
2022/07/02 11:35:51;;;;;;;;;;;;;;;25.42;33.64;102070.78;5007529;28;19963;-61
2022/07/02 11:38:17;;;;;;;;;;;;;;;26.28;32.97;102061.28;4976143;28;19988;-61
2022/07/02 11:40:42;;;;;;;;;;;;;;;27.28;32.77;102059.13;4976157;28;19914;-61
2022/07/02 11:43:14;;;;;;;;;;;;;;;27.83;30.04;102061.00;4976135;28;20189;-61
2022/07/02 11:45:43;;;;;;;;;;;;;;;28.14;31.35;102044.34;4975839;28;19965;-63
2022/07/02 11:48:17;;;;;;;;;;;;;;;28.74;30.54;102043.66;4975858;28;19992;-62
2022/07/02 11:50:42;;;;;;;;;;;;;;;28.35;29.82;102045.88;4976209;28;19910;-61
2022/07/02 11:53:08;;;;;;;;;;;;;;;27.77;32.02;102048.84;5007166;28;19992;-61
2022/07/02 11:55:33;;;;;;;;;;;;;;;27.82;32.73;102048.41;4975688;28;19913;-61
2022/07/02 11:57:59;;;;;;;;;;;;;;;27.32;31.30;102036.06;4975632;28;19914;-60
2022/07/02 12:00:33;;;;;;;;;;;;;;;26.77;32.57;102032.25;5007121;28;19925;-60
2022/07/02 12:03:18;;;;;;;;;;;;;;;25.90;33.92;102033.09;4975474;28;19921;-61
2022/07/02 12:05:50;;;;;;;;;;;;;;;26.45;33.83;102019.81;4973982;28;19932;-60
2022/07/02 12:08:16;;;;;;;;;;;;;;;27.59;32.45;102021.63;4990672;28;19910;-60
2022/07/02 12:10:41;;;;;;;;;;;;;;;28.17;31.44;102021.38;4975617;28;20336;-61
2022/07/02 12:13:07;;;;;;;;;;;;;;;28.52;31.25;102025.94;4990277;28;19925;-61
2022/07/02 12:15:39;;;;;;;;;;;;;;;28.61;30.11;102018.69;4975254;28;20298;-62
2022/07/02 12:18:13;;;;;;;;;;;;;;;28.17;30.64;102024.94;4975260;28;19914;-60
2022/07/02 12:20:38;;;;;;;;;;;;;;;27.88;31.79;102025.16;4975551;28;19914;-61
2022/07/02 12:23:04;;;;;;;;;;;;;;;27.34;32.16;102019.59;4975300;28;19914;-59
2022/07/02 12:25:29;;;;;;;;;;;;;;;27.21;33.37;102026.22;4975180;28;20012;-60
2022/07/02 12:27:54;;;;;;;;;;;;;;;27.34;31.99;102017.75;4975167;28;19945;-61
2022/07/02 12:30:19;;;;;;;;;;;;;;;26.91;32.55;102021.91;4975194;28;19906;-61